Time;durP1;ratioP1;P1;durP2;ratioP2;P2;SDS_P1;SDS_P2;PMS_P1;PMS_P2;Temp;Humidity;BMP_temperature;BMP_pressure;BME280_temperature;BME280_humidity;BME280_pressure;Samples;Min_cycle;Max_cycle;Signal;HPM_P1;HPM_P2
2023/01/09 00:01:14;;;;;;;5.10;4.77;;;11.90;66.80;;;;;;5053339;28;20438;-88
2023/01/09 00:03:43;;;;;;;4.77;4.00;;;11.60;68.20;;;;;;5087368;28;20446;-87
2023/01/09 00:06:10;;;;;;;3.37;3.03;;;11.70;68.60;;;;;;5057020;27;20784;-88
2023/01/09 00:08:37;;;;;;;4.27;3.27;;;12.00;67.30;;;;;;5072517;28;20464;-85
2023/01/09 00:11:04;;;;;;;3.50;3.20;;;12.20;66.70;;;;;;5069173;27;20447;-87
2023/01/09 00:13:31;;;;;;;6.07;2.63;;;11.90;67.50;;;;;;5071062;28;21037;-87
2023/01/09 00:15:58;;;;;;;3.80;3.50;;;12.10;67.20;;;;;;5047585;28;20451;-87
2023/01/09 00:18:25;;;;;;;4.00;3.70;;;12.30;67.20;;;;;;5070385;28;20742;-86
2023/01/09 00:20:53;;;;;;;3.43;3.13;;;12.30;66.80;;;;;;5084651;28;20819;-88
2023/01/09 00:23:20;;;;;;;5.77;3.60;;;12.30;67.20;;;;;;5070800;28;20502;-88
2023/01/09 00:25:47;;;;;;;4.50;3.30;;;12.10;67.20;;;;;;5069497;28;20442;-87
2023/01/09 00:28:14;;;;;;;7.00;4.20;;;12.20;67.50;;;;;;5085044;27;20786;-87
2023/01/09 00:30:41;;;;;;;5.80;3.97;;;12.20;67.00;;;;;;5068444;28;21038;-87
2023/01/09 00:33:09;;;;;;;5.37;4.00;;;12.30;67.20;;;;;;5070995;27;21079;-87
2023/01/09 00:35:36;;;;;;;3.77;3.40;;;12.30;66.90;;;;;;5056735;28;20441;-87
2023/01/09 00:38:04;;;;;;;4.60;3.30;;;12.40;66.40;;;;;;5071851;28;20498;-87
2023/01/09 00:40:31;;;;;;;4.43;3.70;;;12.40;66.50;;;;;;5065935;28;20463;-87
2023/01/09 00:42:58;;;;;;;4.60;3.97;;;12.20;67.10;;;;;;5041980;28;20457;-87
2023/01/09 00:45:28;;;;;;;4.47;4.03;;;12.20;67.40;;;;;;5085773;28;20482;-87
2023/01/09 00:47:59;;;;;;;5.70;3.53;;;12.30;66.90;;;;;;5067510;28;20809;-87
2023/01/09 00:50:29;;;;;;;5.77;3.53;;;12.30;67.20;;;;;;5069503;28;20922;-87
2023/01/09 00:52:58;;;;;;;5.00;3.67;;;12.50;66.70;;;;;;5102329;28;20475;-87
2023/01/09 00:55:26;;;;;;;4.77;3.93;;;12.50;66.40;;;;;;5078233;28;20470;-87
2023/01/09 00:57:53;;;;;;;6.63;3.60;;;12.50;66.20;;;;;;5051449;28;20462;-87
2023/01/09 01:00:20;;;;;;;12.23;4.67;;;12.60;66.50;;;;;;5085872;28;20488;-88
2023/01/09 01:02:47;;;;;;;4.37;3.80;;;12.50;66.30;;;;;;5068846;28;20443;-88
2023/01/09 01:07:58;;;;;;;9.20;3.77;;;12.50;66.40;;;;;;5063886;28;20435;-87
2023/01/09 01:10:27;;;;;;;4.10;3.40;;;12.30;66.70;;;;;;5071683;28;20443;-88
2023/01/09 01:12:55;;;;;;;4.93;3.37;;;11.90;68.50;;;;;;5056104;28;20447;-88
2023/01/09 01:15:22;;;;;;;5.23;3.57;;;11.90;68.60;;;;;;5052161;28;20825;-87
2023/01/09 01:17:48;;;;;;;4.03;3.70;;;11.70;69.40;;;;;;5043840;28;20443;-85
2023/01/09 01:20:17;;;;;;;4.30;3.90;;;11.90;69.10;;;;;;5103364;28;20479;-88
2023/01/09 01:22:45;;;;;;;7.93;3.70;;;11.90;68.90;;;;;;5047400;28;20446;-85
2023/01/09 01:25:15;;;;;;;3.30;3.00;;;12.00;68.70;;;;;;5069541;27;20443;-86
2023/01/09 01:27:44;;;;;;;3.90;2.60;;;11.70;69.20;;;;;;5052798;28;20445;-85
2023/01/09 01:30:14;;;;;;;3.60;3.17;;;11.10;71.10;;;;;;5053518;28;20952;-87
2023/01/09 01:32:41;;;;;;;3.07;2.77;;;11.00;72.60;;;;;;5087935;28;20447;-87
2023/01/09 01:35:09;;;;;;;4.40;3.00;;;11.20;72.10;;;;;;5068452;27;20443;-87
2023/01/09 01:37:37;;;;;;;4.63;3.03;;;11.50;71.20;;;;;;5082387;28;20454;-87
2023/01/09 01:40:06;;;;;;;13.27;6.03;;;11.90;70.40;;;;;;5087645;28;20995;-87
2023/01/09 01:42:33;;;;;;;15.27;6.17;;;12.00;69.50;;;;;;5086767;28;20541;-86
2023/01/09 01:45:13;;;;;;;12.70;4.80;;;12.20;68.40;;;;;;5059312;28;20455;-87
2023/01/09 01:47:46;;;;;;;2.90;2.47;;;12.30;68.20;;;;;;5063272;28;20500;-88
2023/01/09 01:50:24;;;;;;;2.53;2.07;;;12.20;67.90;;;;;;5084626;27;20450;-87
2023/01/09 01:52:57;;;;;;;4.07;2.67;;;12.00;68.30;;;;;;5068109;28;20435;-87
2023/01/09 01:55:24;;;;;;;2.40;2.20;;;12.10;68.40;;;;;;5085710;28;20450;-88
2023/01/09 01:57:55;;;;;;;2.23;2.03;;;12.00;68.70;;;;;;5067608;28;20474;-88
2023/01/09 02:00:29;;;;;;;4.13;2.83;;;12.00;68.80;;;;;;5051174;28;20953;-87
2023/01/09 02:02:56;;;;;;;2.27;2.00;;;12.10;68.70;;;;;;5098781;28;20538;-88
2023/01/09 02:05:23;;;;;;;2.77;2.20;;;12.10;68.20;;;;;;5058561;28;20443;-87
2023/01/09 02:07:50;;;;;;;2.40;2.20;;;12.10;68.30;;;;;;5084746;28;20466;-86
2023/01/09 02:10:18;;;;;;;2.17;1.97;;;12.10;68.30;;;;;;5085940;28;21423;-87
2023/01/09 02:12:45;;;;;;;2.33;2.13;;;12.10;68.60;;;;;;5050632;28;20807;-85
2023/01/09 02:15:15;;;;;;;2.70;2.50;;;12.10;68.30;;;;;;5061524;28;20451;-87
2023/01/09 02:18:12;;;;;;;3.00;2.20;;;12.20;68.40;;;;;;5099078;28;20543;-86
2023/01/09 02:20:45;;;;;;;2.37;2.17;;;12.10;68.60;;;;;;5060153;28;20492;-87
2023/01/09 02:23:43;;;;;;;3.63;1.90;;;12.10;69.10;;;;;;5082165;28;20964;-87
2023/01/09 02:26:43;;;;;;;2.43;1.93;;;12.40;68.30;;;;;;5048388;28;20439;-88
2023/01/09 02:29:46;;;;;;;2.63;2.30;;;12.60;67.20;;;;;;5043246;28;20986;-87
2023/01/09 02:32:27;;;;;;;4.53;2.60;;;12.30;67.60;;;;;;5103158;27;20442;-87
2023/01/09 02:35:06;;;;;;;2.50;2.30;;;12.60;67.50;;;;;;5049693;28;20447;-87
2023/01/09 02:37:38;;;;;;;2.50;2.30;;;12.40;67.60;;;;;;5050828;28;20443;-87
2023/01/09 02:40:10;;;;;;;3.00;2.60;;;12.50;67.40;;;;;;5039562;28;20481;-87
2023/01/09 02:42:40;;;;;;;2.70;2.27;;;12.40;67.40;;;;;;5083965;28;20451;-87
2023/01/09 02:45:08;;;;;;;3.20;2.70;;;12.50;67.20;;;;;;5059279;27;20537;-87
2023/01/09 02:47:42;;;;;;;3.20;2.73;;;12.60;67.20;;;;;;5050913;28;20435;-87
2023/01/09 02:50:14;;;;;;;3.03;2.63;;;12.70;66.70;;;;;;5039322;28;20451;-87
2023/01/09 02:53:02;;;;;;;3.97;2.77;;;12.60;66.60;;;;;;5079165;28;20453;-87
2023/01/09 02:55:43;;;;;;;3.03;2.83;;;12.60;67.00;;;;;;5068006;28;20461;-88
2023/01/09 02:58:17;;;;;;;6.33;2.87;;;12.40;67.00;;;;;;5049480;28;20566;-87
2023/01/09 03:00:56;;;;;;;2.53;2.33;;;12.60;67.00;;;;;;5101690;28;20513;-87
2023/01/09 03:03:34;;;;;;;2.30;2.10;;;12.40;67.40;;;;;;5065951;28;20948;-87
2023/01/09 03:06:07;;;;;;;2.73;2.53;;;12.60;67.10;;;;;;5085879;28;20435;-85
2023/01/09 03:08:38;;;;;;;2.13;2.03;;;12.80;66.60;;;;;;5068264;28;21063;-88
2023/01/09 03:11:07;;;;;;;5.40;2.90;;;13.00;66.10;;;;;;5052908;28;20436;-85
2023/01/09 03:13:41;;;;;;;5.00;2.50;;;13.00;65.50;;;;;;5055690;28;20451;-88
2023/01/09 03:16:11;;;;;;;3.30;2.40;;;12.70;65.90;;;;;;5066059;28;20451;-87
2023/01/09 03:18:41;;;;;;;8.57;5.80;;;12.60;66.80;;;;;;5067664;28;20467;-88
2023/01/09 03:21:09;;;;;;;5.73;5.03;;;12.60;66.20;;;;;;5055642;28;20467;-88
2023/01/09 03:23:46;;;;;;;2.27;1.90;;;12.60;66.50;;;;;;5083744;28;20450;-87
2023/01/09 03:26:14;;;;;;;1.80;1.70;;;12.50;66.70;;;;;;5072720;28;20435;-88
2023/01/09 03:28:41;;;;;;;2.07;1.87;;;12.40;67.00;;;;;;5058741;28;20458;-87
2023/01/09 03:31:08;;;;;;;1.87;1.67;;;12.40;67.10;;;;;;5045088;28;20461;-87
2023/01/09 03:33:35;;;;;;;2.20;1.57;;;12.30;66.90;;;;;;5067363;28;20796;-87
2023/01/09 03:36:05;;;;;;;2.13;1.93;;;12.30;66.90;;;;;;5081900;28;20451;-84
2023/01/09 03:38:32;;;;;;;1.70;1.60;;;12.30;66.80;;;;;;5083500;28;20791;-86
2023/01/09 03:40:59;;;;;;;1.57;1.30;;;12.30;67.20;;;;;;5065412;28;20463;-87
2023/01/09 03:43:26;;;;;;;1.60;1.50;;;12.50;66.90;;;;;;5059017;28;20912;-87
2023/01/09 03:45:53;;;;;;;0.97;0.87;;;12.30;66.90;;;;;;5049663;28;20451;-87
2023/01/09 03:48:20;;;;;;;1.10;1.00;;;12.40;66.50;;;;;;5102163;28;20466;-85
2023/01/09 03:50:48;;;;;;;1.50;1.20;;;12.30;66.50;;;;;;5066914;28;21018;-88
2023/01/09 03:53:17;;;;;;;3.30;1.00;;;12.20;66.30;;;;;;5049821;28;20447;-85
2023/01/09 03:55:45;;;;;;;0.77;0.77;;;12.20;66.80;;;;;;5084189;28;20446;-87
2023/01/09 03:58:12;;;;;;;1.80;1.03;;;12.10;67.10;;;;;;5043673;28;21018;-87
2023/01/09 04:00:39;;;;;;;1.20;0.97;;;12.00;68.60;;;;;;5082821;28;20817;-87
2023/01/09 04:03:07;;;;;;;1.43;1.00;;;12.10;68.20;;;;;;5081784;28;20525;-87
2023/01/09 04:05:35;;;;;;;1.03;0.93;;;12.10;68.00;;;;;;5074157;28;20439;-87
2023/01/09 04:08:02;;;;;;;4.70;0.90;;;12.20;67.80;;;;;;5068898;28;20454;-87
2023/01/09 04:10:30;;;;;;;0.90;0.80;;;12.40;67.10;;;;;;5050060;28;20978;-88
2023/01/09 04:12:58;;;;;;;0.90;0.70;;;12.30;66.80;;;;;;5054000;28;20456;-87
2023/01/09 04:15:25;;;;;;;1.30;0.90;;;12.30;67.10;;;;;;5061585;28;20462;-86
2023/01/09 04:17:52;;;;;;;1.10;1.00;;;12.30;67.00;;;;;;5081040;28;21021;-87
2023/01/09 04:20:19;;;;;;;1.00;0.90;;;12.20;67.30;;;;;;5062202;28;20873;-87
2023/01/09 04:22:46;;;;;;;0.90;0.80;;;12.30;67.20;;;;;;5081541;28;20473;-85
2023/01/09 04:25:13;;;;;;;0.90;0.80;;;12.10;67.30;;;;;;5074733;28;20503;-88
2023/01/09 04:27:41;;;;;;;0.80;0.70;;;12.10;67.50;;;;;;5068277;28;20535;-87
2023/01/09 04:30:09;;;;;;;1.20;1.10;;;12.00;68.10;;;;;;5050180;28;20485;-87
2023/01/09 04:32:36;;;;;;;3.70;3.40;;;12.10;68.20;;;;;;5066678;28;20526;-88
2023/01/09 04:35:04;;;;;;;3.17;2.90;;;12.00;68.00;;;;;;5064920;28;20438;-87
2023/01/09 04:37:31;;;;;;;2.77;2.57;;;11.90;68.60;;;;;;5085199;28;20947;-88
2023/01/09 04:39:58;;;;;;;4.87;3.20;;;11.60;69.20;;;;;;5051023;28;20976;-87
2023/01/09 04:42:25;;;;;;;4.60;4.20;;;11.60;69.80;;;;;;5089143;28;20897;-87
2023/01/09 04:44:53;;;;;;;2.70;2.50;;;11.70;70.00;;;;;;5084459;28;20454;-87
2023/01/09 04:47:20;;;;;;;4.10;3.70;;;11.90;69.50;;;;;;5061475;28;20447;-87
2023/01/09 04:49:47;;;;;;;5.37;4.67;;;12.00;68.80;;;;;;5068748;28;20999;-87
2023/01/09 04:52:14;;;;;;;26.17;13.77;;;12.00;69.00;;;;;;5052223;27;20467;-87
2023/01/09 04:54:41;;;;;;;4.27;3.80;;;11.90;69.10;;;;;;5069535;28;20450;-87
2023/01/09 04:57:08;;;;;;;2.40;2.30;;;11.80;69.50;;;;;;5082392;28;20465;-87
2023/01/09 04:59:35;;;;;;;1.43;1.33;;;11.90;69.70;;;;;;5103544;28;20486;-88
2023/01/09 05:02:03;;;;;;;1.43;1.33;;;11.80;69.50;;;;;;5051485;28;20463;-86
2023/01/09 05:04:30;;;;;;;1.00;0.90;;;11.80;69.50;;;;;;5070710;28;20458;-87
2023/01/09 05:06:57;;;;;;;1.10;1.00;;;11.80;69.50;;;;;;5085951;28;20717;-87
2023/01/09 05:09:24;;;;;;;1.30;1.20;;;11.60;69.50;;;;;;5060018;28;20493;-87
2023/01/09 05:11:51;;;;;;;1.97;1.87;;;11.60;69.00;;;;;;5067744;28;20455;-87
2023/01/09 05:14:19;;;;;;;2.33;1.23;;;11.50;69.20;;;;;;5069799;27;20457;-87
2023/01/09 05:16:46;;;;;;;1.33;1.23;;;11.40;69.30;;;;;;5085223;28;20466;-86
2023/01/09 05:19:14;;;;;;;1.20;1.10;;;11.40;69.50;;;;;;5080841;28;20478;-86
2023/01/09 05:21:41;;;;;;;7.27;1.40;;;11.60;69.50;;;;;;5051644;28;20463;-87
2023/01/09 05:24:08;;;;;;;1.97;1.77;;;11.50;68.60;;;;;;5061389;28;20435;-86
2023/01/09 05:26:35;;;;;;;1.10;1.00;;;11.50;69.10;;;;;;5068025;28;21254;-86
2023/01/09 05:29:02;;;;;;;2.17;2.07;;;11.60;69.00;;;;;;5066586;28;20459;-86
2023/01/09 05:31:29;;;;;;;2.43;1.23;;;11.60;67.40;;;;;;5071251;28;20838;-87
2023/01/09 05:33:58;;;;;;;1.90;1.80;;;11.60;67.80;;;;;;5067563;28;20447;-87
2023/01/09 05:36:27;;;;;;;2.50;1.47;;;11.50;67.50;;;;;;5066349;28;20443;-86
2023/01/09 05:38:56;;;;;;;3.10;1.40;;;11.40;67.30;;;;;;5052718;28;20998;-87
2023/01/09 05:41:23;;;;;;;1.80;1.40;;;11.30;67.80;;;;;;5051864;28;20841;-86
2023/01/09 05:43:50;;;;;;;1.30;1.00;;;11.20;67.70;;;;;;5068778;28;20450;-86
2023/01/09 05:46:17;;;;;;;1.33;1.20;;;11.10;67.70;;;;;;5067655;28;20447;-86
2023/01/09 05:48:44;;;;;;;20.70;8.17;;;11.10;66.70;;;;;;5063868;28;20462;-87
2023/01/09 05:51:11;;;;;;;1.70;1.30;;;11.30;67.30;;;;;;5066142;28;21171;-86
2023/01/09 05:53:39;;;;;;;4.90;2.60;;;11.10;66.00;;;;;;5066643;28;20830;-85
2023/01/09 05:56:07;;;;;;;1.30;1.00;;;11.00;68.10;;;;;;5082933;28;20453;-87
2023/01/09 05:58:34;;;;;;;3.83;1.00;;;11.00;67.30;;;;;;5050579;28;20454;-87
2023/01/09 06:01:01;;;;;;;1.77;1.47;;;10.70;67.20;;;;;;5060765;28;20570;-87
2023/01/09 06:03:29;;;;;;;1.53;0.90;;;10.70;68.00;;;;;;5064301;28;20466;-87
2023/01/09 06:05:55;;;;;;;1.00;0.90;;;10.70;66.20;;;;;;5100558;27;20449;-88
2023/01/09 06:08:24;;;;;;;1.60;0.93;;;10.50;66.20;;;;;;5076408;28;20831;-85
2023/01/09 06:10:52;;;;;;;1.07;0.93;;;10.50;67.70;;;;;;5067029;28;20443;-85
2023/01/09 06:13:19;;;;;;;9.57;6.83;;;10.70;66.60;;;;;;5068933;28;20449;-85
2023/01/09 06:15:47;;;;;;;1.10;0.93;;;10.90;67.20;;;;;;5085597;28;20455;-86
2023/01/09 06:18:14;;;;;;;3.80;2.50;;;10.90;66.10;;;;;;5062931;28;20463;-86
2023/01/09 06:20:41;;;;;;;14.27;8.90;;;11.00;66.40;;;;;;5066886;28;20455;-86
2023/01/09 06:23:08;;;;;;;5.10;3.90;;;11.30;65.70;;;;;;5045857;28;20457;-84
2023/01/09 06:25:35;;;;;;;5.17;4.67;;;11.50;64.70;;;;;;5066368;28;20443;-87
2023/01/09 06:28:04;;;;;;;6.60;5.63;;;11.60;63.50;;;;;;5069089;28;20442;-87
2023/01/09 06:30:31;;;;;;;6.03;4.50;;;11.80;63.40;;;;;;5059253;28;20449;-86
2023/01/09 06:32:57;;;;;;;2.53;2.33;;;11.90;63.00;;;;;;5067907;28;20435;-84
2023/01/09 06:35:24;;;;;;;2.00;1.77;;;11.70;62.70;;;;;;5051768;28;20482;-87
2023/01/09 06:37:51;;;;;;;3.10;2.90;;;11.50;63.00;;;;;;5067897;28;20435;-84
2023/01/09 06:40:20;;;;;;;2.10;1.70;;;11.60;63.00;;;;;;5045159;28;20450;-84
2023/01/09 06:42:48;;;;;;;2.30;2.20;;;11.70;62.60;;;;;;5043344;28;20505;-85
2023/01/09 06:45:17;;;;;;;1.80;1.70;;;11.90;62.00;;;;;;5084941;28;20533;-85
2023/01/09 06:47:44;;;;;;;1.93;1.43;;;12.00;61.40;;;;;;5073087;28;20438;-86
2023/01/09 06:50:14;;;;;;;2.07;1.87;;;11.80;61.00;;;;;;5080638;27;20812;-86
2023/01/09 06:52:41;;;;;;;4.70;1.70;;;11.50;61.50;;;;;;5089999;28;20463;-87
2023/01/09 06:55:08;;;;;;;2.77;2.27;;;11.30;62.10;;;;;;5082505;28;20549;-87
2023/01/09 06:57:35;;;;;;;2.60;2.40;;;11.20;63.00;;;;;;5085641;28;20450;-87
2023/01/09 07:00:03;;;;;;;3.27;3.00;;;11.10;63.80;;;;;;5082079;28;20467;-86
2023/01/09 07:02:31;;;;;;;1.57;1.47;;;11.00;63.00;;;;;;5068429;28;20561;-86
2023/01/09 07:04:58;;;;;;;1.63;1.53;;;11.10;62.60;;;;;;5065439;28;20451;-85
2023/01/09 07:07:25;;;;;;;1.60;1.50;;;10.90;62.20;;;;;;5067455;28;20443;-86
2023/01/09 07:09:53;;;;;;;7.87;5.97;;;10.80;62.90;;;;;;5077422;28;21300;-85
2023/01/09 07:12:20;;;;;;;3.47;1.47;;;10.90;62.90;;;;;;5083948;28;20447;-86
2023/01/09 07:14:47;;;;;;;2.20;2.00;;;11.00;62.40;;;;;;5081203;28;20569;-86
2023/01/09 07:17:14;;;;;;;7.70;3.07;;;11.00;62.20;;;;;;5082655;28;20454;-86
2023/01/09 07:19:42;;;;;;;4.83;3.80;;;11.20;62.20;;;;;;5060590;28;20466;-86
2023/01/09 07:22:11;;;;;;;3.30;3.00;;;11.40;61.90;;;;;;5082144;28;20921;-86
2023/01/09 07:24:37;;;;;;;2.07;1.93;;;11.40;61.90;;;;;;5068506;28;20439;-85
2023/01/09 07:27:04;;;;;;;2.97;1.63;;;11.30;62.70;;;;;;5068073;28;20522;-87
2023/01/09 07:29:31;;;;;;;2.20;1.67;;;11.40;61.80;;;;;;5063095;28;20459;-85
2023/01/09 07:31:58;;;;;;;2.93;2.03;;;11.40;61.60;;;;;;5103268;28;20435;-86
2023/01/09 07:34:25;;;;;;;3.60;1.53;;;11.40;61.50;;;;;;5078517;28;20484;-86
2023/01/09 07:36:54;;;;;;;1.10;1.00;;;11.30;61.50;;;;;;5050805;28;20963;-84
2023/01/09 07:39:20;;;;;;;3.20;2.07;;;11.30;61.80;;;;;;5084298;28;20971;-87
2023/01/09 07:41:47;;;;;;;1.40;1.20;;;11.10;61.70;;;;;;5084401;28;20474;-86
2023/01/09 07:44:16;;;;;;;3.07;1.27;;;11.10;61.50;;;;;;5067135;28;20457;-86
2023/01/09 07:46:43;;;;;;;1.63;1.33;;;10.80;62.20;;;;;;5072465;28;20459;-87
2023/01/09 07:49:10;;;;;;;3.33;1.20;;;10.80;62.90;;;;;;5066203;28;20474;-86
2023/01/09 07:51:41;;;;;;;3.93;1.90;;;10.80;62.90;;;;;;5048605;28;20443;-86
2023/01/09 07:54:10;;;;;;;1.60;1.50;;;10.60;62.40;;;;;;5098848;28;20447;-87
2023/01/09 07:56:37;;;;;;;3.37;1.80;;;10.60;62.30;;;;;;5068528;28;20447;-85
2023/01/09 07:59:04;;;;;;;4.23;1.93;;;10.40;62.80;;;;;;5065597;28;20467;-87
2023/01/09 08:01:31;;;;;;;4.43;2.03;;;10.60;63.00;;;;;;5073144;28;20467;-86
2023/01/09 08:03:57;;;;;;;2.17;1.50;;;10.60;62.80;;;;;;5072284;28;20450;-86
2023/01/09 08:06:24;;;;;;;4.70;1.70;;;10.60;62.60;;;;;;5056032;27;20469;-85
2023/01/09 08:08:51;;;;;;;2.00;1.30;;;10.70;62.70;;;;;;5053614;28;20466;-85
2023/01/09 08:11:20;;;;;;;2.67;1.60;;;10.80;62.70;;;;;;5052471;27;20445;-86
2023/01/09 08:13:47;;;;;;;1.67;1.40;;;10.60;62.20;;;;;;5087948;28;20443;-87
2023/01/09 08:16:13;;;;;;;6.70;2.17;;;10.70;62.70;;;;;;5089348;28;20525;-85
2023/01/09 08:18:40;;;;;;;3.73;2.33;;;10.80;62.00;;;;;;5088912;28;20466;-87
2023/01/09 08:21:08;;;;;;;4.50;1.90;;;10.90;62.20;;;;;;5088145;28;20557;-87
2023/01/09 08:23:35;;;;;;;2.60;1.10;;;10.80;62.10;;;;;;5062647;28;20434;-86
2023/01/09 08:26:02;;;;;;;2.83;1.70;;;10.80;62.40;;;;;;5069953;28;20944;-86
2023/01/09 08:28:30;;;;;;;4.90;2.53;;;10.60;62.60;;;;;;5068110;27;20473;-85
2023/01/09 08:30:57;;;;;;;1.70;1.33;;;10.70;62.90;;;;;;5066223;28;20443;-84
2023/01/09 08:33:25;;;;;;;2.40;1.23;;;10.60;63.80;;;;;;5071923;27;20446;-86
2023/01/09 08:35:52;;;;;;;2.10;1.23;;;10.80;63.20;;;;;;5088372;28;20450;-84
2023/01/09 08:38:20;;;;;;;7.03;1.20;;;10.90;62.80;;;;;;5082878;27;20470;-85
2023/01/09 08:40:47;;;;;;;6.10;1.60;;;11.10;62.30;;;;;;5072470;28;20442;-87
2023/01/09 08:48:46;;;;;;;3.83;1.80;;;11.20;62.70;;;;;;5054528;28;20459;-87
2023/01/09 08:51:14;;;;;;;2.43;2.23;;;11.50;62.40;;;;;;5070244;28;21096;-85
2023/01/09 08:53:41;;;;;;;3.53;1.90;;;11.60;61.20;;;;;;5071586;28;20461;-86
2023/01/09 08:56:09;;;;;;;1.40;1.30;;;11.60;60.80;;;;;;5071395;28;20510;-86
2023/01/09 08:58:35;;;;;;;7.07;4.77;;;11.50;62.00;;;;;;5047712;27;20468;-86
2023/01/09 09:01:06;;;;;;;15.43;8.00;;;11.50;61.50;;;;;;5100247;27;20486;-86
2023/01/09 09:03:33;;;;;;;20.50;11.47;;;11.30;61.20;;;;;;5087379;28;20454;-86
2023/01/09 09:06:00;;;;;;;1.87;1.67;;;11.30;62.10;;;;;;5059099;28;20441;-83
2023/01/09 09:08:27;;;;;;;3.30;1.33;;;11.30;62.00;;;;;;5068149;28;20459;-85
2023/01/09 09:10:56;;;;;;;1.67;1.50;;;11.40;61.60;;;;;;5085275;28;21010;-85
2023/01/09 09:13:23;;;;;;;5.57;1.30;;;11.30;62.30;;;;;;5065431;28;20811;-87
2023/01/09 09:15:50;;;;;;;16.63;9.30;;;11.50;62.00;;;;;;5085137;28;20459;-86
2023/01/09 09:18:18;;;;;;;3.93;2.17;;;11.60;61.10;;;;;;5071197;27;21157;-87
2023/01/09 09:20:45;;;;;;;1.40;1.10;;;11.40;60.40;;;;;;5075915;28;20450;-87
2023/01/09 09:23:12;;;;;;;2.97;1.93;;;11.20;61.50;;;;;;5086511;28;20494;-86
2023/01/09 09:25:39;;;;;;;5.33;2.20;;;11.10;63.40;;;;;;5087428;28;20558;-88
2023/01/09 09:28:06;;;;;;;4.13;1.73;;;11.30;61.30;;;;;;5049958;28;20435;-86
2023/01/09 09:30:33;;;;;;;3.03;2.23;;;11.20;62.00;;;;;;5090349;27;20439;-87
2023/01/09 09:33:02;;;;;;;2.80;1.10;;;11.20;62.50;;;;;;5085284;28;20541;-87
2023/01/09 09:35:31;;;;;;;5.77;1.80;;;11.30;62.10;;;;;;5070353;28;20462;-87
2023/01/09 09:38:01;;;;;;;22.07;16.43;;;11.20;62.10;;;;;;5070484;28;20473;-86
2023/01/09 09:40:41;;;;;;;3.90;1.73;;;11.30;61.40;;;;;;5069974;28;20470;-86
2023/01/09 09:46:26;;;;;;;1.87;0.97;;;11.50;60.90;;;;;;5070073;28;20971;-86
2023/01/09 09:48:56;;;;;;;5.27;1.20;;;11.40;60.80;;;;;;5069615;28;20485;-86
2023/01/09 09:51:43;;;;;;;3.63;1.60;;;11.30;60.00;;;;;;5069118;27;20454;-86
2023/01/09 09:54:13;;;;;;;3.43;0.93;;;11.50;60.50;;;;;;5078179;28;20450;-87
2023/01/09 09:56:48;;;;;;;4.63;1.37;;;11.50;59.60;;;;;;5053401;28;20446;-85
2023/01/09 09:59:18;;;;;;;3.10;1.30;;;11.60;60.30;;;;;;5052041;28;20478;-86
2023/01/09 10:01:53;;;;;;;1.80;1.70;;;11.50;59.50;;;;;;5052949;28;20463;-87
2023/01/09 10:04:23;;;;;;;1.70;1.20;;;11.40;60.90;;;;;;5069410;28;20454;-84
2023/01/09 10:06:56;;;;;;;1.40;1.30;;;11.40;60.30;;;;;;5072806;28;20450;-87
2023/01/09 10:09:32;;;;;;;3.30;2.00;;;11.30;60.30;;;;;;5085999;28;20478;-87
2023/01/09 10:12:03;;;;;;;5.63;2.77;;;11.30;60.40;;;;;;5061134;28;21018;-86
2023/01/09 10:14:30;;;;;;;4.50;2.20;;;11.50;61.10;;;;;;5073648;28;20447;-85
2023/01/09 10:17:18;;;;;;;1.93;0.93;;;11.60;59.80;;;;;;5070058;28;20447;-86
2023/01/09 10:20:08;;;;;;;3.37;1.30;;;11.40;58.90;;;;;;5069696;28;20447;-87
2023/01/09 10:22:46;;;;;;;2.17;1.03;;;11.50;60.10;;;;;;5052471;27;20463;-87
2023/01/09 10:25:26;;;;;;;1.30;1.20;;;11.70;60.00;;;;;;5069786;28;21391;-86
2023/01/09 10:28:16;;;;;;;3.37;2.23;;;11.40;59.00;;;;;;5069103;28;20481;-86
2023/01/09 10:30:45;;;;;;;3.53;1.37;;;11.30;59.40;;;;;;5050851;28;20475;-85
2023/01/09 10:33:31;;;;;;;4.47;1.40;;;11.30;59.20;;;;;;5051873;28;20459;-86
2023/01/09 10:36:42;;;;;;;6.03;1.17;;;11.20;59.20;;;;;;5069108;28;21162;-86
2023/01/09 10:39:17;;;;;;;1.43;0.97;;;11.20;59.20;;;;;;5010151;28;20466;-86
2023/01/09 10:41:53;;;;;;;4.20;1.30;;;11.30;59.30;;;;;;5078926;28;20448;-85
2023/01/09 10:44:24;;;;;;;2.20;1.10;;;11.30;58.90;;;;;;5067555;28;20466;-86
2023/01/09 10:46:54;;;;;;;2.50;1.10;;;11.20;59.30;;;;;;5085252;28;20989;-86
2023/01/09 10:49:23;;;;;;;2.70;1.30;;;11.30;59.70;;;;;;5078427;27;20463;-85
2023/01/09 10:51:52;;;;;;;1.60;1.13;;;11.60;59.50;;;;;;5068958;28;20454;-86
2023/01/09 10:54:22;;;;;;;1.37;0.87;;;11.80;59.00;;;;;;5051446;28;20570;-85
2023/01/09 10:56:55;;;;;;;1.50;0.80;;;11.80;57.60;;;;;;5086167;28;20952;-85
2023/01/09 10:59:22;;;;;;;1.53;0.80;;;11.60;57.10;;;;;;5051917;28;20471;-84
2023/01/09 11:01:50;;;;;;;1.10;1.00;;;11.40;58.10;;;;;;5053062;28;20442;-86
2023/01/09 11:04:25;;;;;;;0.90;0.70;;;11.40;58.20;;;;;;5087321;28;20469;-86
2023/01/09 11:06:58;;;;;;;0.80;0.70;;;11.50;57.70;;;;;;5052996;28;20453;-84
2023/01/09 11:09:26;;;;;;;1.97;1.33;;;11.40;57.90;;;;;;5061973;28;20459;-86
2023/01/09 11:11:53;;;;;;;0.83;0.80;;;11.60;57.40;;;;;;5069009;28;20503;-87
2023/01/09 11:14:26;;;;;;;1.47;0.70;;;11.60;57.40;;;;;;5084960;28;20458;-86
2023/01/09 11:16:55;;;;;;;1.13;0.80;;;11.60;58.20;;;;;;5055877;28;20447;-86
2023/01/09 11:19:23;;;;;;;1.00;0.70;;;11.70;57.40;;;;;;5050007;28;20979;-86
2023/01/09 11:21:50;;;;;;;1.00;0.80;;;11.60;56.50;;;;;;5083152;28;20469;-86
2023/01/09 11:24:28;;;;;;;6.57;1.03;;;11.60;56.80;;;;;;5085150;28;21226;-86
2023/01/09 11:27:22;;;;;;;0.83;0.77;;;11.30;57.40;;;;;;5056946;28;20468;-85
2023/01/09 11:30:07;;;;;;;1.90;0.80;;;11.50;58.00;;;;;;5068429;28;20703;-86
2023/01/09 11:32:35;;;;;;;2.30;1.00;;;11.50;57.20;;;;;;5069479;28;20423;-87
2023/01/09 11:35:05;;;;;;;1.50;1.40;;;11.40;57.50;;;;;;5067808;28;20435;-86
2023/01/09 11:37:33;;;;;;;2.00;1.00;;;11.30;57.50;;;;;;5087743;28;20815;-86
2023/01/09 11:40:01;;;;;;;1.90;0.80;;;11.20;57.50;;;;;;5053836;28;20463;-86
2023/01/09 11:45:16;;;;;;;1.30;0.80;;;11.30;58.40;;;;;;5086948;28;20814;-86
2023/01/09 11:47:44;;;;;;;1.77;0.93;;;11.50;57.60;;;;;;5072390;28;20449;-86
2023/01/09 11:50:19;;;;;;;1.10;0.80;;;11.80;57.80;;;;;;5053587;28;21183;-86
2023/01/09 11:52:47;;;;;;;3.23;0.90;;;12.00;56.30;;;;;;5089204;28;20993;-86
2023/01/09 11:55:19;;;;;;;3.20;0.97;;;11.80;56.30;;;;;;5050528;28;20454;-86
2023/01/09 11:57:49;;;;;;;0.90;0.80;;;11.80;56.50;;;;;;5056759;28;20535;-87
2023/01/09 12:00:25;;;;;;;1.13;1.03;;;11.80;56.20;;;;;;5072125;28;20444;-87
2023/01/09 12:03:03;;;;;;;1.93;1.20;;;11.90;57.20;;;;;;5065900;28;20462;-86
2023/01/09 12:05:43;;;;;;;3.00;1.60;;;11.90;56.00;;;;;;5090763;27;20507;-87
2023/01/09 12:08:21;;;;;;;3.70;1.00;;;11.70;55.90;;;;;;5075366;28;20514;-86
2023/01/09 12:11:07;;;;;;;1.20;0.83;;;11.90;55.90;;;;;;5092398;28;20443;-86
2023/01/09 12:13:50;;;;;;;3.43;1.10;;;12.00;55.90;;;;;;5055085;28;20477;-87
2023/01/09 12:16:31;;;;;;;1.87;1.07;;;12.10;56.10;;;;;;5055696;28;20474;-87
2023/01/09 12:19:18;;;;;;;6.43;1.50;;;12.30;56.40;;;;;;5086172;28;20470;-85
2023/01/09 12:21:53;;;;;;;1.17;0.93;;;12.30;55.80;;;;;;5054324;28;20514;-85
2023/01/09 12:24:43;;;;;;;1.70;1.27;;;12.40;55.00;;;;;;5088999;28;20462;-86
2023/01/09 12:27:25;;;;;;;6.10;3.27;;;12.20;55.70;;;;;;5049668;28;20431;-87
2023/01/09 12:30:10;;;;;;;3.27;1.53;;;12.20;55.70;;;;;;5090004;28;21050;-86
2023/01/09 12:32:49;;;;;;;7.20;1.40;;;12.00;55.80;;;;;;5081116;28;20615;-87
2023/01/09 12:35:27;;;;;;;2.87;1.20;;;12.20;55.10;;;;;;5081312;28;20549;-87
2023/01/09 12:38:30;;;;;;;1.60;1.30;;;12.30;55.00;;;;;;5056345;28;20451;-86
2023/01/09 12:41:21;;;;;;;3.33;1.43;;;12.30;55.70;;;;;;5085100;28;20455;-84
2023/01/09 12:44:02;;;;;;;2.80;1.43;;;12.10;54.60;;;;;;5056155;28;20469;-87
2023/01/09 12:46:38;;;;;;;4.33;2.20;;;12.20;55.50;;;;;;5071607;27;20537;-87
2023/01/09 12:49:19;;;;;;;4.63;2.07;;;12.20;54.80;;;;;;5052681;28;20562;-87
2023/01/09 12:51:50;;;;;;;4.37;2.73;;;12.40;54.80;;;;;;5056659;28;20502;-87
2023/01/09 12:54:25;;;;;;;7.00;3.10;;;12.30;54.60;;;;;;5087296;28;20443;-85
2023/01/09 12:56:57;;;;;;;3.47;2.57;;;12.40;55.00;;;;;;5087645;28;20717;-84
2023/01/09 12:59:34;;;;;;;11.40;4.97;;;12.50;54.60;;;;;;5070474;28;20542;-85
2023/01/09 13:02:11;;;;;;;3.00;2.40;;;12.60;54.60;;;;;;5050893;28;20837;-86
2023/01/09 13:04:42;;;;;;;5.03;2.63;;;12.50;54.40;;;;;;5071853;28;20471;-84
2023/01/09 13:07:16;;;;;;;3.00;1.67;;;12.70;54.10;;;;;;5069663;28;20966;-87
2023/01/09 13:09:47;;;;;;;1.53;1.33;;;12.70;54.10;;;;;;5090408;27;20589;-87
2023/01/09 13:12:17;;;;;;;5.90;2.80;;;12.50;53.70;;;;;;5085630;28;20451;-87
2023/01/09 13:14:53;;;;;;;3.40;1.40;;;12.50;54.70;;;;;;5088355;28;20450;-85
2023/01/09 13:17:26;;;;;;;1.40;1.20;;;12.40;54.70;;;;;;5080668;28;20454;-86